Richford, Vermont
Current Conditions -  °F | °C
As of 1:15 PM on Friday 19 Dec 2014 (Local Time) from KFSO Reporting Station
Overcast Overcast  
Wind Chill: 23°   Ceiling: 1900
Heat Index: 23°   Visibility: 10mi
Dew Point: 17°   Wind: 0mph
Humidity: 79%   Direction: NA
Pressure: 30.09"   Gusts: NA
Location:  45°N, 72.67°W
Report Text: KFSO 191815Z AUTO 00000KT 10SM OVC019 M05/M08 A3009 RMK AO2 T10501082
Loading
Personal Weather Stations






























Interactive Weather Map New forecast layout! Learn more

10-Day Weather Forecast

Advertisements
Track Severe Weather on mobile